Sharon Hollow, Michigan
Current Conditions -  °F | °C
As of 7:53 PM on Saturday 20 Dec 2014 (Local Time) from KARB Reporting Station
Overcast Overcast  
Wind Chill: 29°   Ceiling: 2500
Heat Index: 29°   Visibility: 10mi
Dew Point: 23°   Wind: 3mph
Humidity: 78%   Direction: 150°SSE
Pressure: 30.28"   Gusts: NA
Location:  42.1633°N, 84.0265°W
Report Text: KARB 210053Z AUTO 15003KT 10SM OVC025 M02/M05 A3028 RMK AO2 SLP266 T10171050
Loading
Personal Weather Stations






























Interactive Weather Map New forecast layout! Learn more

10-Day Weather Forecast

Advertisements
Track Severe Weather on mobile